Fabre, Canada
Current Conditions -  °F | °C
As of 7:00 PM on Monday 20 Oct 2014 (Local Time) from CYXR Reporting Station
Light Rain Light Rain  
Wind Chill:   Ceiling: 2400
Heat Index:   Visibility: 9mi
Dew Point:   Wind: 7mph
Humidity: 93%   Direction: 20°NNE
Pressure: 29.88"   Gusts: NA
Location:  47.2°N, 79.37°W
Report Text: CYXR 202300Z AUTO 02006KT 9SM -RA SCT016 OVC024 04/03 A2988 RMK TS/LTNG TEMPO UNAVBL SLP131
Loading
Personal Weather Stations






























Interactive Weather Map
Tropical Storm Tracking
New forecast layout! Learn more

10-Day Weather Forecast

Advertisements
Track Severe Weather on mobile